Time;durP1;ratioP1;P1;durP2;ratioP2;P2;SDS_P1;SDS_P2;PMS_P1;PMS_P2;Temp;Humidity;BMP_temperature;BMP_pressure;BME280_temperature;BME280_humidity;BME280_pressure;Samples;Min_cycle;Max_cycle;Signal;HPM_P1;HPM_P2
2023/12/03 00:01:14;;;;;;;24.50;13.13;;;-1.30;99.90;;;;;;4896687;29;20182;-89
2023/12/03 00:03:40;;;;;;;24.60;13.30;;;-1.30;99.90;;;;;;4914685;29;20233;-90
2023/12/03 00:06:06;;;;;;;23.13;13.23;;;-1.30;99.90;;;;;;4877960;29;20192;-90
2023/12/03 00:08:33;;;;;;;25.73;13.27;;;-1.30;99.90;;;;;;4892209;29;20191;-90
2023/12/03 00:10:59;;;;;;;24.07;13.33;;;-1.30;99.90;;;;;;4892119;29;20623;-90
2023/12/03 00:13:25;;;;;;;23.37;13.47;;;-1.40;99.90;;;;;;4888804;29;20197;-88
2023/12/03 00:15:50;;;;;;;26.27;13.80;;;-1.40;99.90;;;;;;4913976;29;20199;-89
2023/12/03 00:18:16;;;;;;;23.40;14.37;;;-1.40;99.90;;;;;;4885794;29;20189;-90
2023/12/03 00:20:42;;;;;;;26.80;14.70;;;-1.40;99.90;;;;;;4885749;29;20193;-89
2023/12/03 00:23:07;;;;;;;26.03;13.80;;;-1.40;99.90;;;;;;4880767;29;20183;-91
2023/12/03 00:25:33;;;;;;;24.23;13.73;;;-1.40;99.90;;;;;;4898760;29;20679;-91
2023/12/03 00:28:01;;;;;;;26.00;14.03;;;-1.40;99.90;;;;;;4900469;29;20184;-87
2023/12/03 00:30:27;;;;;;;24.73;13.93;;;-1.40;99.90;;;;;;4875382;29;20191;-90
2023/12/03 00:32:53;;;;;;;27.97;14.33;;;-1.40;99.90;;;;;;4881984;29;20545;-90
2023/12/03 00:35:18;;;;;;;27.23;14.43;;;-1.40;99.90;;;;;;4886305;29;20187;-90
2023/12/03 00:37:44;;;;;;;30.20;14.10;;;-1.40;99.90;;;;;;4885965;29;20267;-89
2023/12/03 00:40:11;;;;;;;25.37;13.87;;;-1.40;99.90;;;;;;4894791;29;20184;-90
2023/12/03 00:42:37;;;;;;;26.90;13.77;;;-1.40;99.90;;;;;;4899250;29;20194;-90
2023/12/03 00:45:03;;;;;;;24.70;14.43;;;-1.40;99.90;;;;;;4896675;29;20219;-89
2023/12/03 00:47:30;;;;;;;25.73;13.97;;;-1.40;99.90;;;;;;4891757;29;20210;-90
2023/12/03 00:49:56;;;;;;;31.07;15.30;;;-1.40;99.90;;;;;;4891614;29;20191;-90
2023/12/03 00:52:21;;;;;;;26.07;14.50;;;-1.40;99.90;;;;;;4874729;29;20188;-88
2023/12/03 00:54:47;;;;;;;29.17;15.53;;;-1.50;99.90;;;;;;4886639;29;20508;-90
2023/12/03 00:57:13;;;;;;;27.70;15.17;;;-1.40;99.90;;;;;;4879535;29;20188;-90
2023/12/03 00:59:40;;;;;;;29.20;15.70;;;-1.50;99.90;;;;;;4897587;29;20194;-90
2023/12/03 01:02:07;;;;;;;27.57;14.40;;;-1.40;99.90;;;;;;4883600;29;20626;-90
2023/12/03 01:04:33;;;;;;;27.57;13.80;;;-1.40;99.90;;;;;;4892263;29;20536;-89
2023/12/03 01:06:58;;;;;;;28.53;14.53;;;-1.40;99.90;;;;;;4901855;29;20186;-90
2023/12/03 01:09:40;;;;;;;26.83;14.20;;;-1.40;99.90;;;;;;4917536;29;20207;-90
2023/12/03 01:12:06;;;;;;;27.40;15.27;;;-1.40;99.90;;;;;;4877475;29;20214;-90
2023/12/03 01:14:32;;;;;;;27.90;14.97;;;-1.40;99.90;;;;;;4908810;29;20183;-90
2023/12/03 01:16:57;;;;;;;25.97;14.20;;;-1.40;99.90;;;;;;4894393;29;20696;-91
2023/12/03 01:19:23;;;;;;;30.27;15.70;;;-1.40;99.90;;;;;;4880335;29;20765;-91
2023/12/03 01:21:49;;;;;;;28.53;15.00;;;-1.40;99.90;;;;;;4912986;29;20185;-89
2023/12/03 01:24:15;;;;;;;31.20;15.47;;;-1.40;99.90;;;;;;4897419;29;20231;-89
2023/12/03 01:26:40;;;;;;;29.37;15.10;;;-1.40;99.90;;;;;;4902868;29;20188;-90
2023/12/03 01:29:06;;;;;;;28.03;15.37;;;-1.40;99.90;;;;;;4904673;29;20176;-90
2023/12/03 01:31:32;;;;;;;32.27;16.57;;;-1.40;99.90;;;;;;4877421;29;20218;-90
2023/12/03 01:33:57;;;;;;;31.97;15.90;;;-1.40;99.90;;;;;;4877264;29;20271;-90
2023/12/03 01:36:23;;;;;;;29.20;15.10;;;-1.40;99.90;;;;;;4874095;29;20322;-89
2023/12/03 01:38:51;;;;;;;29.03;15.53;;;-1.40;99.90;;;;;;4890527;29;20182;-89
2023/12/03 01:41:16;;;;;;;33.40;17.57;;;-1.40;99.90;;;;;;4892536;29;20187;-90
2023/12/03 01:43:54;;;;;;;34.80;16.53;;;-1.40;99.90;;;;;;4877061;29;20317;-90
2023/12/03 01:46:21;;;;;;;33.37;16.30;;;-1.40;99.90;;;;;;4893643;29;20574;-90
2023/12/03 01:48:53;;;;;;;31.63;15.70;;;-1.40;99.90;;;;;;4877151;29;20183;-90
2023/12/03 01:51:19;;;;;;;30.03;15.53;;;-1.40;99.90;;;;;;4893710;29;20626;-90
2023/12/03 01:53:48;;;;;;;34.17;15.83;;;-1.40;99.90;;;;;;4877169;29;20238;-90
2023/12/03 01:56:16;;;;;;;28.63;15.23;;;-1.40;99.90;;;;;;4875295;29;20190;-90
2023/12/03 01:58:43;;;;;;;31.83;16.27;;;-1.40;99.90;;;;;;4884009;29;20191;-89
2023/12/03 02:01:09;;;;;;;28.63;15.20;;;-1.40;99.90;;;;;;4910364;29;20186;-90
2023/12/03 02:03:35;;;;;;;34.83;16.30;;;-1.40;99.90;;;;;;4915680;29;20237;-90
2023/12/03 02:06:10;;;;;;;33.60;16.30;;;-1.40;99.90;;;;;;4899904;29;20205;-90
2023/12/03 02:08:37;;;;;;;32.83;16.50;;;-1.40;99.90;;;;;;4873563;29;20198;-89
2023/12/03 02:11:05;;;;;;;34.00;17.07;;;-1.30;99.90;;;;;;4890542;29;20180;-89
2023/12/03 02:13:37;;;;;;;33.93;16.20;;;-1.30;99.90;;;;;;4893071;29;20658;-90
2023/12/03 02:16:03;;;;;;;32.30;16.37;;;-1.30;99.90;;;;;;4900956;29;20651;-88
2023/12/03 02:18:39;;;;;;;32.70;16.40;;;-1.30;99.90;;;;;;4880127;29;20689;-90
2023/12/03 02:21:07;;;;;;;30.10;15.53;;;-1.20;99.90;;;;;;4879367;29;20195;-90
2023/12/03 02:23:32;;;;;;;31.30;15.87;;;-1.20;99.90;;;;;;4901088;29;20207;-90
2023/12/03 02:25:58;;;;;;;31.03;15.97;;;-1.20;99.90;;;;;;4892732;29;20183;-89
2023/12/03 02:28:31;;;;;;;30.63;15.53;;;-1.20;99.90;;;;;;4903173;29;20183;-89
2023/12/03 02:30:57;;;;;;;31.20;15.40;;;-1.20;99.90;;;;;;4904849;29;20187;-90
2023/12/03 02:33:23;;;;;;;32.60;15.60;;;-1.20;99.90;;;;;;4892991;29;20191;-91
2023/12/03 02:35:49;;;;;;;30.23;15.20;;;-1.20;99.90;;;;;;4882306;29;20241;-90
2023/12/03 02:38:15;;;;;;;29.33;15.57;;;-1.10;99.90;;;;;;4894500;29;20567;-91
2023/12/03 02:40:40;;;;;;;34.00;16.50;;;-1.10;99.90;;;;;;4883893;29;20556;-90
2023/12/03 02:43:06;;;;;;;33.37;16.73;;;-1.10;99.90;;;;;;4875754;29;20240;-91
2023/12/03 02:45:31;;;;;;;31.60;15.37;;;-1.10;99.90;;;;;;4908204;29;20274;-91
2023/12/03 02:47:57;;;;;;;30.97;16.07;;;-1.10;99.90;;;;;;4892729;29;20183;-92
2023/12/03 02:50:23;;;;;;;29.00;15.40;;;-1.10;99.90;;;;;;4895411;29;20598;-91
2023/12/03 02:52:49;;;;;;;28.83;15.40;;;-1.10;99.90;;;;;;4894680;29;20186;-90
2023/12/03 02:55:14;;;;;;;33.67;16.07;;;-1.10;99.90;;;;;;4883636;29;20694;-91
2023/12/03 02:57:40;;;;;;;28.83;15.50;;;-1.10;99.90;;;;;;4887869;29;20677;-91
2023/12/03 03:00:06;;;;;;;32.93;16.27;;;-1.00;99.90;;;;;;4903558;29;20187;-91
2023/12/03 03:02:32;;;;;;;25.57;14.17;;;-1.00;99.90;;;;;;4915697;29;20200;-91
2023/12/03 03:04:58;;;;;;;29.40;16.23;;;-1.00;99.90;;;;;;4908258;29;20303;-91
2023/12/03 03:07:24;;;;;;;28.27;15.83;;;-1.00;99.90;;;;;;4875827;29;20191;-90
2023/12/03 03:09:52;;;;;;;30.07;15.47;;;-1.00;99.90;;;;;;4892497;29;20219;-90
2023/12/03 03:12:18;;;;;;;29.77;15.00;;;-1.00;99.90;;;;;;4909800;29;20194;-91
2023/12/03 03:14:43;;;;;;;30.87;15.83;;;-1.00;99.90;;;;;;4911096;29;20183;-92
2023/12/03 03:17:09;;;;;;;28.07;15.03;;;-1.00;99.90;;;;;;4910924;29;20186;-91
2023/12/03 03:19:35;;;;;;;28.83;14.17;;;-1.00;99.90;;;;;;4901668;29;20218;-91
2023/12/03 03:22:01;;;;;;;29.17;14.80;;;-1.00;99.90;;;;;;4895875;29;20190;-91
2023/12/03 03:24:26;;;;;;;29.23;14.53;;;-1.00;99.90;;;;;;4890677;29;20233;-91
2023/12/03 03:26:52;;;;;;;31.10;15.87;;;-1.00;99.90;;;;;;4890529;29;20199;-91
2023/12/03 03:29:29;;;;;;;27.03;14.63;;;-0.90;99.90;;;;;;4890133;29;20183;-92
2023/12/03 03:31:55;;;;;;;30.20;15.60;;;-0.90;99.90;;;;;;4888899;29;20263;-91
2023/12/03 03:34:20;;;;;;;28.70;14.63;;;-0.90;99.90;;;;;;4876887;29;20211;-90
2023/12/03 03:36:46;;;;;;;30.63;14.97;;;-0.90;99.90;;;;;;4900248;29;20239;-91
2023/12/03 03:39:18;;;;;;;31.33;15.93;;;-0.90;99.90;;;;;;4893871;29;20188;-90
2023/12/03 03:41:43;;;;;;;30.23;15.37;;;-0.90;99.90;;;;;;4879293;29;20187;-92
2023/12/03 03:44:09;;;;;;;29.03;15.30;;;-0.90;99.90;;;;;;4879244;29;20227;-92
2023/12/03 03:46:34;;;;;;;29.30;15.90;;;-0.90;99.90;;;;;;4895948;29;20189;-91
2023/12/03 03:49:00;;;;;;;28.23;14.23;;;-0.90;99.90;;;;;;4886997;29;20219;-91
2023/12/03 03:51:26;;;;;;;32.80;15.60;;;-0.90;99.90;;;;;;4882214;29;20564;-91
2023/12/03 03:53:52;;;;;;;32.37;15.73;;;-0.90;99.90;;;;;;4902182;29;20184;-92
2023/12/03 03:56:18;;;;;;;28.03;14.80;;;-0.90;99.90;;;;;;4885634;29;20227;-92
2023/12/03 03:58:50;;;;;;;32.23;15.70;;;-0.90;99.90;;;;;;4884105;29;20282;-92
2023/12/03 04:01:16;;;;;;;29.97;15.33;;;-0.90;99.90;;;;;;4877179;29;20187;-93
2023/12/03 04:03:42;;;;;;;29.00;14.90;;;-0.90;99.90;;;;;;4875805;29;20222;-91
2023/12/03 04:06:08;;;;;;;24.73;14.03;;;-0.90;99.90;;;;;;4908192;29;20178;-91
2023/12/03 04:08:34;;;;;;;27.80;14.83;;;-0.90;99.90;;;;;;4879131;29;20186;-92
2023/12/03 04:11:04;;;;;;;29.07;14.43;;;-0.90;99.90;;;;;;4895308;29;20239;-92
2023/12/03 04:13:30;;;;;;;26.67;14.40;;;-0.90;99.90;;;;;;4878828;29;20215;-92
2023/12/03 04:15:56;;;;;;;28.87;14.73;;;-0.90;99.90;;;;;;4879739;29;20183;-92
2023/12/03 04:18:23;;;;;;;26.27;13.03;;;-0.90;99.90;;;;;;4882908;29;20530;-92
2023/12/03 04:21:01;;;;;;;30.00;14.60;;;-0.90;99.90;;;;;;4881245;29;20246;-91
2023/12/03 04:23:27;;;;;;;30.57;15.23;;;-0.90;99.90;;;;;;4875491;29;20210;-92
2023/12/03 04:25:52;;;;;;;28.87;15.20;;;-0.90;99.90;;;;;;4898519;29;20611;-92
2023/12/03 04:28:18;;;;;;;32.40;15.37;;;-0.80;99.90;;;;;;4894987;29;20309;-92
2023/12/03 04:30:54;;;;;;;30.40;15.27;;;-0.90;99.90;;;;;;4895288;29;20499;-92
2023/12/03 04:33:19;;;;;;;26.27;14.30;;;-0.80;99.90;;;;;;4880725;29;20218;-92
2023/12/03 04:35:45;;;;;;;26.93;15.03;;;-0.80;99.90;;;;;;4886099;29;20261;-92
2023/12/03 04:38:10;;;;;;;28.63;14.37;;;-0.80;99.90;;;;;;4876035;29;20192;-93
2023/12/03 04:40:48;;;;;;;26.83;15.20;;;-0.80;99.90;;;;;;4881982;29;20191;-92
2023/12/03 04:43:14;;;;;;;27.70;14.57;;;-0.90;99.90;;;;;;4876583;29;20215;-92
2023/12/03 04:45:40;;;;;;;29.23;14.83;;;-0.90;99.90;;;;;;4893713;29;20202;-92
2023/12/03 04:48:05;;;;;;;28.70;14.83;;;-0.90;99.90;;;;;;4894435;29;20215;-92
2023/12/03 04:50:31;;;;;;;30.37;16.00;;;-0.90;99.90;;;;;;4894921;29;20188;-93
2023/12/03 04:52:57;;;;;;;27.77;14.20;;;-0.90;99.90;;;;;;4893581;29;20596;-93
2023/12/03 04:55:22;;;;;;;29.77;15.03;;;-0.90;99.90;;;;;;4877796;29;20186;-92
2023/12/03 04:57:48;;;;;;;28.53;15.50;;;-0.90;99.90;;;;;;4909996;29;20250;-93
2023/12/03 05:00:24;;;;;;;30.67;15.53;;;-0.90;99.90;;;;;;4876417;29;20335;-93
2023/12/03 05:02:49;;;;;;;27.57;15.23;;;-0.90;99.90;;;;;;4874920;29;20191;-93
2023/12/03 05:05:15;;;;;;;31.07;15.43;;;-0.90;99.90;;;;;;4877753;29;20226;-93
2023/12/03 05:07:41;;;;;;;27.87;14.73;;;-0.90;99.90;;;;;;4921000;29;20218;-92
2023/12/03 05:10:07;;;;;;;29.00;15.33;;;-0.90;99.90;;;;;;4895679;29;20187;-92
2023/12/03 05:12:32;;;;;;;30.27;15.73;;;-0.90;99.90;;;;;;4877421;29;20514;-93
2023/12/03 05:14:58;;;;;;;29.30;16.07;;;-0.90;99.90;;;;;;4877759;29;20210;-93
2023/12/03 05:17:24;;;;;;;26.17;14.30;;;-0.90;99.90;;;;;;4892979;29;20237;-93
2023/12/03 05:19:52;;;;;;;30.43;16.07;;;-0.90;99.90;;;;;;4896100;29;20206;-93
2023/12/03 05:22:17;;;;;;;28.50;14.87;;;-0.90;99.90;;;;;;4910346;29;20185;-92
2023/12/03 05:24:43;;;;;;;32.23;15.90;;;-0.90;99.90;;;;;;4915683;29;20302;-92
2023/12/03 05:27:09;;;;;;;27.63;14.87;;;-0.90;99.90;;;;;;4876789;29;20239;-91
2023/12/03 05:29:39;;;;;;;28.37;14.97;;;-0.90;99.90;;;;;;4891023;29;20191;-93
2023/12/03 05:32:05;;;;;;;30.43;16.17;;;-0.90;99.90;;;;;;4874281;29;20223;-92
2023/12/03 05:34:31;;;;;;;28.70;15.53;;;-0.80;99.90;;;;;;4894044;29;20214;-93
2023/12/03 05:36:56;;;;;;;28.97;16.00;;;-0.80;99.90;;;;;;4893996;29;20565;-93
2023/12/03 05:39:26;;;;;;;28.07;15.80;;;-0.90;99.90;;;;;;4892878;29;20609;-93
2023/12/03 05:41:52;;;;;;;28.13;15.60;;;-0.80;99.90;;;;;;4877379;29;20191;-93
2023/12/03 05:44:18;;;;;;;28.83;15.27;;;-0.80;99.90;;;;;;4908981;29;20210;-91
2023/12/03 05:46:43;;;;;;;28.87;15.73;;;-0.80;99.90;;;;;;4879820;29;20232;-93
2023/12/03 05:49:10;;;;;;;29.77;15.53;;;-0.90;99.90;;;;;;4898102;29;20182;-93
2023/12/03 05:51:35;;;;;;;28.03;14.77;;;-0.80;99.90;;;;;;4882084;29;20202;-93
2023/12/03 05:54:01;;;;;;;31.33;16.07;;;-0.80;99.90;;;;;;4881124;29;20195;-93
2023/12/03 05:56:28;;;;;;;28.00;14.27;;;-0.80;99.90;;;;;;4884341;29;20198;-93
2023/12/03 05:58:53;;;;;;;28.60;16.73;;;-0.80;99.90;;;;;;4893085;29;20272;-93
2023/12/03 06:01:25;;;;;;;30.13;15.87;;;-0.80;99.90;;;;;;4874377;29;20266;-92
2023/12/03 06:03:51;;;;;;;31.77;15.87;;;-0.80;99.90;;;;;;4890375;29;20233;-93
2023/12/03 06:06:18;;;;;;;30.27;16.20;;;-0.80;99.90;;;;;;4875235;29;20635;-93
2023/12/03 06:08:44;;;;;;;33.53;17.10;;;-0.80;99.90;;;;;;4893264;29;20305;-93
2023/12/03 06:11:17;;;;;;;31.70;16.23;;;-0.80;99.90;;;;;;4908914;29;20254;-92
2023/12/03 06:13:43;;;;;;;31.80;17.57;;;-0.80;99.90;;;;;;4876500;29;20274;-93
2023/12/03 06:16:09;;;;;;;34.17;17.10;;;-0.80;99.90;;;;;;4883593;29;20286;-91
2023/12/03 06:18:35;;;;;;;33.57;16.87;;;-0.80;99.90;;;;;;4893226;29;20184;-93
2023/12/03 06:21:02;;;;;;;31.57;17.27;;;-0.80;99.90;;;;;;4876620;29;20195;-92
2023/12/03 06:23:28;;;;;;;31.40;17.10;;;-0.80;99.90;;;;;;4890023;29;20182;-92
2023/12/03 06:25:54;;;;;;;32.37;16.23;;;-0.80;99.90;;;;;;4879785;29;20250;-93
2023/12/03 06:28:19;;;;;;;32.97;17.20;;;-0.80;99.90;;;;;;4890811;29;20187;-93
2023/12/03 06:30:50;;;;;;;34.23;18.20;;;-0.70;99.90;;;;;;4878853;29;20214;-94
2023/12/03 06:33:18;;;;;;;30.13;16.77;;;-0.70;99.90;;;;;;4891388;29;20184;-93
2023/12/03 06:35:45;;;;;;;30.23;16.90;;;-0.70;99.90;;;;;;4872885;29;20620;-94
2023/12/03 06:38:10;;;;;;;34.57;17.33;;;-0.70;99.90;;;;;;4873849;29;20518;-93
2023/12/03 06:40:42;;;;;;;32.70;17.27;;;-0.70;99.90;;;;;;4879717;29;20707;-93
2023/12/03 06:43:07;;;;;;;30.00;16.23;;;-0.70;99.90;;;;;;4889129;29;20658;-93
2023/12/03 06:45:33;;;;;;;32.10;16.80;;;-0.70;99.90;;;;;;4887329;29;20220;-93
2023/12/03 06:47:59;;;;;;;32.03;16.53;;;-0.70;99.90;;;;;;4879831;29;20186;-93
2023/12/03 06:50:25;;;;;;;31.50;16.53;;;-0.70;99.90;;;;;;4873526;29;20262;-92
2023/12/03 06:52:51;;;;;;;31.17;17.60;;;-0.70;99.90;;;;;;4878886;29;20525;-93
2023/12/03 06:55:17;;;;;;;34.77;17.83;;;-0.70;99.90;;;;;;4875932;29;20187;-92
2023/12/03 06:57:42;;;;;;;32.40;17.23;;;-0.70;99.90;;;;;;4897379;29;20238;-93
2023/12/03 07:00:10;;;;;;;31.97;16.63;;;-0.70;99.90;;;;;;4894637;29;20187;-93
2023/12/03 07:02:36;;;;;;;30.53;16.27;;;-0.70;99.90;;;;;;4896069;29;20190;-94
2023/12/03 07:05:02;;;;;;;27.10;15.20;;;-0.70;99.90;;;;;;4899164;29;20213;-93
2023/12/03 07:07:29;;;;;;;29.83;16.07;;;-0.70;99.90;;;;;;4880534;29;20282;-94
2023/12/03 07:09:55;;;;;;;33.03;17.37;;;-0.70;99.90;;;;;;4872603;29;20190;-93
2023/12/03 07:12:21;;;;;;;31.90;16.80;;;-0.70;99.90;;;;;;4880122;29;20191;-93
2023/12/03 07:14:46;;;;;;;33.60;17.50;;;-0.70;99.90;;;;;;4899922;29;20186;-93
2023/12/03 07:17:12;;;;;;;32.47;17.63;;;-0.60;99.90;;;;;;4884692;29;20202;-93
2023/12/03 07:19:44;;;;;;;30.93;17.53;;;-0.60;99.90;;;;;;4888059;29;20183;-94
2023/12/03 07:22:10;;;;;;;31.77;17.20;;;-0.60;99.90;;;;;;4890577;29;20329;-93
2023/12/03 07:24:37;;;;;;;32.87;17.57;;;-0.60;99.90;;;;;;4873063;29;20690;-94
2023/12/03 07:27:03;;;;;;;32.07;16.23;;;-0.60;99.90;;;;;;4887461;29;20186;-92
2023/12/03 07:29:28;;;;;;;30.00;17.07;;;-0.60;99.90;;;;;;4887007;29;20181;-93
2023/12/03 07:32:02;;;;;;;33.43;17.40;;;-0.60;99.90;;;;;;4918467;29;20241;-93
2023/12/03 07:34:28;;;;;;;31.23;17.80;;;-0.50;99.90;;;;;;4900256;29;20216;-93
2023/12/03 07:36:53;;;;;;;35.97;17.40;;;-0.50;99.90;;;;;;4890700;29;20293;-94
2023/12/03 07:39:19;;;;;;;34.43;18.60;;;-0.50;99.90;;;;;;4892027;29;20316;-87
2023/12/03 07:41:53;;;;;;;33.80;17.50;;;-0.50;99.90;;;;;;4896171;29;20191;-93
2023/12/03 07:44:20;;;;;;;33.00;17.80;;;-0.40;99.90;;;;;;4897669;29;20202;-93
2023/12/03 07:46:46;;;;;;;30.83;17.37;;;-0.50;99.90;;;;;;4876978;29;20190;-93
2023/12/03 07:49:11;;;;;;;30.53;17.23;;;-0.40;99.90;;;;;;4887126;29;20191;-93
2023/12/03 07:51:37;;;;;;;30.40;16.57;;;-0.40;99.90;;;;;;4896866;29;20653;-94
2023/12/03 07:54:03;;;;;;;33.97;19.03;;;-0.40;99.90;;;;;;4893838;29;20197;-91
2023/12/03 07:56:40;;;;;;;43.83;22.93;;;-0.40;99.90;;;;;;4894335;29;20190;-92
2023/12/03 07:59:06;;;;;;;42.70;21.23;;;-0.50;99.90;;;;;;4891314;29;20210;-92
2023/12/03 08:01:32;;;;;;;40.77;21.63;;;-0.40;99.90;;;;;;4878783;29;20571;-94
2023/12/03 08:03:58;;;;;;;37.33;21.80;;;-0.40;99.90;;;;;;4887190;29;20274;-89
2023/12/03 08:06:24;;;;;;;44.27;22.77;;;-0.30;99.90;;;;;;4893347;29;20194;-92
2023/12/03 08:08:52;;;;;;;39.43;21.37;;;-0.30;99.90;;;;;;4910438;29;20187;-94
2023/12/03 08:11:20;;;;;;;45.40;23.47;;;-0.30;99.90;;;;;;4910126;29;20194;-93
2023/12/03 08:13:46;;;;;;;41.00;23.83;;;-0.20;99.90;;;;;;4916627;29;20189;-93
2023/12/03 08:16:13;;;;;;;42.50;23.80;;;-0.20;99.90;;;;;;4900559;29;20190;-93
2023/12/03 08:18:38;;;;;;;47.53;23.87;;;-0.20;99.90;;;;;;4887786;29;20183;-92
2023/12/03 08:21:10;;;;;;;40.97;22.13;;;-0.20;99.90;;;;;;4914779;29;20321;-89
2023/12/03 08:23:36;;;;;;;42.33;22.83;;;-0.20;99.90;;;;;;4893877;29;20206;-92
2023/12/03 08:26:05;;;;;;;42.70;21.83;;;-0.20;99.90;;;;;;4888259;29;20225;-93
2023/12/03 08:28:31;;;;;;;43.47;21.43;;;-0.10;99.90;;;;;;4897344;29;20192;-94
2023/12/03 08:30:59;;;;;;;45.03;22.70;;;-0.10;99.90;;;;;;4913524;29;20207;-93
2023/12/03 08:33:24;;;;;;;41.57;21.90;;;-0.10;99.90;;;;;;4913136;29;20191;-84
2023/12/03 08:35:50;;;;;;;42.13;22.83;;;-0.10;99.90;;;;;;4905006;29;20329;-92
2023/12/03 08:38:16;;;;;;;42.47;23.00;;;-0.10;99.90;;;;;;4897289;29;20207;-91
2023/12/03 08:40:49;;;;;;;43.93;21.73;;;0.00;99.90;;;;;;4917347;29;20183;-94
2023/12/03 08:43:29;;;;;;;46.83;22.80;;;0.10;99.90;;;;;;4893167;29;20179;-90
2023/12/03 08:45:56;;;;;;;47.20;23.30;;;0.10;99.90;;;;;;4916987;29;20195;-92
2023/12/03 08:48:22;;;;;;;43.57;23.00;;;0.20;99.90;;;;;;4927197;29;20241;-96
2023/12/03 08:50:47;;;;;;;52.13;23.97;;;0.20;99.90;;;;;;4900063;29;20274;-90
2023/12/03 08:53:14;;;;;;;44.87;22.07;;;0.30;99.90;;;;;;4896374;29;20186;-94
2023/12/03 08:55:40;;;;;;;46.03;23.57;;;0.40;99.90;;;;;;4923192;29;20186;-93
2023/12/03 08:58:06;;;;;;;54.40;27.60;;;0.40;99.90;;;;;;4900098;29;20187;-95
2023/12/03 09:00:32;;;;;;;41.77;22.97;;;0.40;99.90;;;;;;4916524;29;20228;-96
2023/12/03 09:02:58;;;;;;;42.60;24.80;;;0.40;99.90;;;;;;4912842;29;20170;-93
2023/12/03 09:05:24;;;;;;;43.90;23.33;;;0.30;99.90;;;;;;4905357;29;20210;-93
2023/12/03 09:07:50;;;;;;;43.37;24.23;;;0.30;99.90;;;;;;4911856;29;20285;-92
2023/12/03 09:10:16;;;;;;;42.23;22.93;;;0.30;99.90;;;;;;4934944;29;20242;-90
2023/12/03 09:12:46;;;;;;;38.63;23.03;;;0.40;99.90;;;;;;4914734;29;20186;-92
2023/12/03 09:15:12;;;;;;;40.13;23.43;;;0.40;99.90;;;;;;4911735;29;20266;-93
2023/12/03 09:17:37;;;;;;;38.70;21.93;;;0.50;99.90;;;;;;4929644;29;20182;-88
2023/12/03 09:20:03;;;;;;;38.17;23.13;;;0.50;99.90;;;;;;4914261;29;20197;-94
2023/12/03 09:22:30;;;;;;;38.30;22.77;;;0.60;99.90;;;;;;4911019;29;20187;-89
2023/12/03 09:24:56;;;;;;;45.63;23.80;;;0.70;99.90;;;;;;4905665;29;20220;-96
2023/12/03 09:27:22;;;;;;;41.63;24.10;;;0.80;99.90;;;;;;4928173;29;20273;-92
2023/12/03 09:29:47;;;;;;;38.90;23.53;;;0.80;99.90;;;;;;4911238;29;20215;-96
2023/12/03 09:32:13;;;;;;;40.30;23.40;;;0.80;99.90;;;;;;4897934;29;20194;-94
2023/12/03 09:34:39;;;;;;;36.93;22.20;;;0.80;99.90;;;;;;4902989;29;20520;-96
2023/12/03 09:37:04;;;;;;;38.63;22.70;;;0.80;99.90;;;;;;4895151;29;20243;-85
2023/12/03 09:39:30;;;;;;;38.53;22.80;;;0.70;99.90;;;;;;4890299;29;20247;-93
2023/12/03 09:42:01;;;;;;;37.70;21.60;;;0.70;99.90;;;;;;4906994;29;20201;-95
2023/12/03 09:44:40;;;;;;;37.37;21.80;;;0.70;99.90;;;;;;4933807;29;20234;-93
2023/12/03 09:47:08;;;;;;;35.93;21.00;;;0.70;99.90;;;;;;4907356;29;20186;-89
2023/12/03 09:49:40;;;;;;;45.30;24.57;;;0.60;99.90;;;;;;4916820;29;20175;-85
2023/12/03 09:52:10;;;;;;;45.73;23.50;;;0.70;99.90;;;;;;4932285;29;20186;-91
2023/12/03 09:54:37;;;;;;;49.03;24.53;;;0.70;99.90;;;;;;4904618;29;20195;-94
2023/12/03 09:57:06;;;;;;;42.90;23.27;;;0.70;99.90;;;;;;4927687;29;20248;-93
2023/12/03 09:59:36;;;;;;;42.20;22.27;;;0.60;99.90;;;;;;4890160;29;20191;-85
2023/12/03 10:02:04;;;;;;;47.27;23.03;;;0.60;99.90;;;;;;4906328;29;20232;-95
2023/12/03 10:04:30;;;;;;;39.20;21.57;;;0.70;99.90;;;;;;4910832;29;20223;-94
2023/12/03 10:06:59;;;;;;;45.20;22.50;;;0.70;99.90;;;;;;4894022;29;20538;-93
2023/12/03 10:09:26;;;;;;;44.77;23.20;;;0.70;99.90;;;;;;4908297;29;20194;-84
2023/12/03 10:12:00;;;;;;;40.17;21.07;;;0.70;99.90;;;;;;4915336;29;20178;-88
2023/12/03 10:14:26;;;;;;;41.07;21.07;;;0.80;99.90;;;;;;4899123;29;20199;-85
2023/12/03 10:16:52;;;;;;;36.83;20.73;;;0.80;99.90;;;;;;4886134;29;20206;-86
2023/12/03 10:19:25;;;;;;;34.57;21.10;;;0.90;99.90;;;;;;4903793;29;20190;-91
2023/12/03 10:21:51;;;;;;;32.37;20.67;;;1.00;99.90;;;;;;4907885;29;20966;-95
2023/12/03 10:56:39;;;;;;;31.10;18.27;;;1.30;99.90;;;;;;5500700;23;20236;-93
2023/12/03 10:59:18;;;;;;;33.67;19.03;;;1.20;99.90;;;;;;4915061;29;20201;-92
2023/12/03 11:01:49;;;;;;;34.67;20.10;;;1.10;99.90;;;;;;4918376;29;20212;-93
2023/12/03 11:04:52;;;;;;;33.90;19.40;;;1.10;99.90;;;;;;4918807;29;20201;-92
2023/12/03 11:07:24;;;;;;;32.13;18.57;;;1.10;99.90;;;;;;4909395;29;20186;-93
2023/12/03 11:09:50;;;;;;;31.87;19.27;;;1.10;99.90;;;;;;4900069;29;20178;-93
2023/12/03 11:12:21;;;;;;;32.10;18.60;;;1.10;99.90;;;;;;4899892;29;20198;-93
2023/12/03 11:15:11;;;;;;;36.70;19.30;;;1.20;99.90;;;;;;4899826;29;20181;-92
2023/12/03 11:18:14;;;;;;;32.20;18.33;;;1.30;99.90;;;;;;4899016;29;20199;-93
2023/12/03 11:20:47;;;;;;;32.83;17.67;;;1.30;99.90;;;;;;4899701;29;20605;-95
2023/12/03 11:24:20;;;;;;;30.30;18.63;;;1.40;99.90;;;;;;4898150;29;20174;-93
2023/12/03 11:27:03;;;;;;;32.63;19.00;;;1.40;99.90;;;;;;4855601;29;20199;-93
2023/12/03 11:29:55;;;;;;;34.97;19.27;;;1.40;99.90;;;;;;4881033;29;20631;-93
2023/12/03 11:32:24;;;;;;;35.50;19.77;;;1.40;99.90;;;;;;4880845;29;20209;-94
2023/12/03 11:35:00;;;;;;;32.80;19.10;;;1.50;99.90;;;;;;4901972;29;20309;-92
2023/12/03 11:37:27;;;;;;;36.10;20.70;;;1.60;99.90;;;;;;4917972;29;20165;-93
2023/12/03 11:40:07;;;;;;;33.50;19.17;;;1.70;99.90;;;;;;4904304;29;20593;-93
2023/12/03 11:42:33;;;;;;;35.47;20.10;;;1.80;99.90;;;;;;4895697;29;20207;-92
2023/12/03 11:45:23;;;;;;;38.17;20.80;;;1.90;99.90;;;;;;4903167;29;20197;-91
2023/12/03 11:48:10;;;;;;;36.70;20.30;;;1.80;99.90;;;;;;4914802;29;20190;-94
2023/12/03 11:50:42;;;;;;;33.67;19.77;;;1.80;99.90;;;;;;4903854;29;20634;-93
2023/12/03 11:53:09;;;;;;;32.27;18.63;;;1.90;99.90;;;;;;4899721;29;20195;-93
2023/12/03 11:55:47;;;;;;;33.20;19.13;;;1.80;99.90;;;;;;4890111;29;20196;-93
2023/12/03 11:58:14;;;;;;;36.27;20.53;;;1.70;99.90;;;;;;4908455;29;20209;-92
2023/12/03 12:00:46;;;;;;;35.07;19.67;;;1.70;99.90;;;;;;4904043;29;20187;-91
2023/12/03 12:03:11;;;;;;;35.13;20.43;;;1.70;99.90;;;;;;4888783;29;20237;-92
2023/12/03 12:05:49;;;;;;;36.93;20.17;;;1.70;99.90;;;;;;4909775;29;20571;-94
2023/12/03 12:08:22;;;;;;;35.93;19.80;;;1.70;99.90;;;;;;4906593;29;20205;-93
2023/12/03 12:10:52;;;;;;;36.63;20.27;;;1.70;99.90;;;;;;4902594;29;20655;-92
2023/12/03 12:13:19;;;;;;;35.53;20.13;;;1.70;99.90;;;;;;4913170;29;20335;-92
2023/12/03 12:15:47;;;;;;;39.17;20.30;;;1.70;99.90;;;;;;4903180;29;20196;-93
2023/12/03 12:18:13;;;;;;;34.43;20.00;;;1.70;99.90;;;;;;4897565;29;20200;-92
2023/12/03 12:20:38;;;;;;;38.50;19.57;;;1.70;99.90;;;;;;4905340;29;20194;-93
2023/12/03 12:23:04;;;;;;;37.87;21.13;;;1.60;99.90;;;;;;4904776;29;20198;-92
2023/12/03 12:25:30;;;;;;;34.63;19.63;;;1.70;99.90;;;;;;4907196;29;20297;-92
2023/12/03 12:27:57;;;;;;;37.23;20.73;;;1.70;99.90;;;;;;4899894;29;20197;-93
2023/12/03 12:30:30;;;;;;;39.07;21.87;;;1.70;99.90;;;;;;4903817;29;20193;-91
2023/12/03 12:32:57;;;;;;;38.37;20.10;;;1.60;99.90;;;;;;4907673;29;20220;-92
2023/12/03 12:35:26;;;;;;;35.87;20.27;;;1.60;99.90;;;;;;4901893;29;20191;-91
2023/12/03 12:38:07;;;;;;;37.00;20.33;;;1.60;99.90;;;;;;4909958;29;20194;-92
2023/12/03 12:40:38;;;;;;;37.73;20.77;;;1.60;99.90;;;;;;4908312;29;20382;-92
2023/12/03 12:43:11;;;;;;;36.70;21.17;;;1.70;99.90;;;;;;4908630;29;20217;-92
2023/12/03 12:45:40;;;;;;;37.50;20.03;;;1.70;99.90;;;;;;4908923;29;20206;-92
2023/12/03 12:48:35;;;;;;;38.77;20.53;;;1.70;99.90;;;;;;4903698;29;20281;-93
2023/12/03 12:51:01;;;;;;;39.57;20.00;;;1.70;99.90;;;;;;4902978;29;20198;-93
2023/12/03 12:54:01;;;;;;;40.70;21.03;;;1.70;99.90;;;;;;4907128;29;20190;-91
2023/12/03 12:56:29;;;;;;;39.57;21.40;;;1.70;99.90;;;;;;4886819;29;20237;-93
2023/12/03 12:58:55;;;;;;;40.37;21.43;;;1.60;99.90;;;;;;4883295;29;20643;-92
2023/12/03 13:01:21;;;;;;;38.00;21.93;;;1.60;99.90;;;;;;4880814;29;20215;-93
2023/12/03 13:03:47;;;;;;;37.73;20.57;;;1.70;99.90;;;;;;4885464;29;20198;-92
2023/12/03 13:06:14;;;;;;;45.43;21.50;;;1.80;99.90;;;;;;4882606;29;20290;-91
2023/12/03 13:08:41;;;;;;;36.43;20.20;;;1.90;99.90;;;;;;4887929;29;20250;-93